sensor_id;sensor_type;location;lat;lon;timestamp;P1;durP1;ratioP1;P2;durP2;ratioP2
29280;SDS011;25048;49.590;11.026;2022-12-07T00:01:34;10.23;;;6.37;;
29280;SDS011;25048;49.590;11.026;2022-12-07T00:04:05;9.67;;;5.83;;
29280;SDS011;25048;49.590;11.026;2022-12-07T00:06:39;10.50;;;6.60;;
29280;SDS011;25048;49.590;11.026;2022-12-07T00:09:12;9.90;;;6.20;;
29280;SDS011;25048;49.590;11.026;2022-12-07T00:11:41;8.07;;;5.67;;
29280;SDS011;25048;49.590;11.026;2022-12-07T00:14:11;10.50;;;6.00;;
29280;SDS011;25048;49.590;11.026;2022-12-07T00:16:40;11.10;;;6.30;;
29280;SDS011;25048;49.590;11.026;2022-12-07T00:19:09;9.87;;;6.60;;
29280;SDS011;25048;49.590;11.026;2022-12-07T00:21:38;12.50;;;7.53;;
29280;SDS011;25048;49.590;11.026;2022-12-07T00:24:06;12.97;;;6.93;;
29280;SDS011;25048;49.590;11.026;2022-12-07T00:26:35;10.10;;;6.50;;
29280;SDS011;25048;49.590;11.026;2022-12-07T00:29:05;10.33;;;6.60;;
29280;SDS011;25048;49.590;11.026;2022-12-07T00:31:35;9.47;;;6.37;;
29280;SDS011;25048;49.590;11.026;2022-12-07T00:34:05;11.27;;;6.33;;
29280;SDS011;25048;49.590;11.026;2022-12-07T00:36:33;9.00;;;6.43;;
29280;SDS011;25048;49.590;11.026;2022-12-07T00:39:01;9.60;;;6.60;;
29280;SDS011;25048;49.590;11.026;2022-12-07T00:41:29;11.97;;;6.77;;
29280;SDS011;25048;49.590;11.026;2022-12-07T00:43:57;11.53;;;6.70;;
29280;SDS011;25048;49.590;11.026;2022-12-07T00:46:25;11.53;;;7.17;;
29280;SDS011;25048;49.590;11.026;2022-12-07T00:48:53;10.63;;;7.03;;
29280;SDS011;25048;49.590;11.026;2022-12-07T00:51:21;10.83;;;7.30;;
29280;SDS011;25048;49.590;11.026;2022-12-07T00:53:50;10.10;;;6.57;;
29280;SDS011;25048;49.590;11.026;2022-12-07T00:56:20;10.97;;;7.30;;
29280;SDS011;25048;49.590;11.026;2022-12-07T00:58:53;11.50;;;6.80;;
29280;SDS011;25048;49.590;11.026;2022-12-07T01:01:23;12.40;;;7.10;;
29280;SDS011;25048;49.590;11.026;2022-12-07T01:03:52;8.67;;;5.70;;
29280;SDS011;25048;49.590;11.026;2022-12-07T01:06:20;13.23;;;7.13;;
29280;SDS011;25048;49.590;11.026;2022-12-07T01:08:48;10.70;;;6.63;;
29280;SDS011;25048;49.590;11.026;2022-12-07T01:11:18;12.07;;;7.23;;
29280;SDS011;25048;49.590;11.026;2022-12-07T01:13:47;11.23;;;7.27;;
29280;SDS011;25048;49.590;11.026;2022-12-07T01:16:16;12.30;;;7.20;;
29280;SDS011;25048;49.590;11.026;2022-12-07T01:18:45;18.33;;;7.53;;
29280;SDS011;25048;49.590;11.026;2022-12-07T01:21:16;10.37;;;6.77;;
29280;SDS011;25048;49.590;11.026;2022-12-07T01:23:46;12.80;;;7.53;;
29280;SDS011;25048;49.590;11.026;2022-12-07T01:26:16;11.73;;;7.23;;
29280;SDS011;25048;49.590;11.026;2022-12-07T01:28:45;10.37;;;7.07;;
29280;SDS011;25048;49.590;11.026;2022-12-07T01:31:13;13.57;;;7.33;;
29280;SDS011;25048;49.590;11.026;2022-12-07T01:33:50;14.60;;;7.47;;
29280;SDS011;25048;49.590;11.026;2022-12-07T01:36:26;13.03;;;7.97;;
29280;SDS011;25048;49.590;11.026;2022-12-07T01:38:56;12.50;;;7.20;;
29280;SDS011;25048;49.590;11.026;2022-12-07T01:41:27;13.30;;;8.03;;
29280;SDS011;25048;49.590;11.026;2022-12-07T01:46:39;13.17;;;7.40;;
29280;SDS011;25048;49.590;11.026;2022-12-07T01:49:25;15.17;;;8.77;;
29280;SDS011;25048;49.590;11.026;2022-12-07T01:52:22;12.70;;;7.43;;
29280;SDS011;25048;49.590;11.026;2022-12-07T01:54:32;14.90;;;7.77;;
29280;SDS011;25048;49.590;11.026;2022-12-07T01:57:01;12.47;;;7.53;;
29280;SDS011;25048;49.590;11.026;2022-12-07T01:59:29;13.00;;;7.40;;
29280;SDS011;25048;49.590;11.026;2022-12-07T02:01:57;12.87;;;8.23;;
29280;SDS011;25048;49.590;11.026;2022-12-07T02:04:24;15.17;;;8.67;;
29280;SDS011;25048;49.590;11.026;2022-12-07T02:06:52;12.53;;;8.10;;
29280;SDS011;25048;49.590;11.026;2022-12-07T02:09:21;15.77;;;9.30;;
29280;SDS011;25048;49.590;11.026;2022-12-07T02:11:48;13.33;;;8.13;;
29280;SDS011;25048;49.590;11.026;2022-12-07T02:14:17;13.97;;;8.03;;
29280;SDS011;25048;49.590;11.026;2022-12-07T02:28:01;13.93;;;8.63;;
29280;SDS011;25048;49.590;11.026;2022-12-07T02:30:33;15.03;;;8.97;;
29280;SDS011;25048;49.590;11.026;2022-12-07T02:33:07;16.10;;;8.97;;
29280;SDS011;25048;49.590;11.026;2022-12-07T02:41:05;16.93;;;8.77;;
29280;SDS011;25048;49.590;11.026;2022-12-07T02:43:35;16.00;;;9.47;;
29280;SDS011;25048;49.590;11.026;2022-12-07T02:46:09;14.87;;;8.63;;
29280;SDS011;25048;49.590;11.026;2022-12-07T02:48:42;14.70;;;8.67;;
29280;SDS011;25048;49.590;11.026;2022-12-07T02:51:10;19.17;;;9.20;;
29280;SDS011;25048;49.590;11.026;2022-12-07T02:53:39;18.03;;;9.40;;
29280;SDS011;25048;49.590;11.026;2022-12-07T03:04:52;14.67;;;8.60;;
29280;SDS011;25048;49.590;11.026;2022-12-07T03:10:10;17.13;;;9.70;;
29280;SDS011;25048;49.590;11.026;2022-12-07T03:12:44;16.33;;;9.27;;
29280;SDS011;25048;49.590;11.026;2022-12-07T03:15:21;15.13;;;9.07;;
29280;SDS011;25048;49.590;11.026;2022-12-07T03:17:49;16.77;;;9.93;;
29280;SDS011;25048;49.590;11.026;2022-12-07T03:20:20;20.70;;;9.77;;
29280;SDS011;25048;49.590;11.026;2022-12-07T03:22:50;17.70;;;9.37;;
29280;SDS011;25048;49.590;11.026;2022-12-07T03:25:19;15.03;;;8.53;;
29280;SDS011;25048;49.590;11.026;2022-12-07T03:27:49;18.97;;;10.20;;
29280;SDS011;25048;49.590;11.026;2022-12-07T03:30:23;17.87;;;10.10;;
29280;SDS011;25048;49.590;11.026;2022-12-07T03:32:50;18.13;;;9.90;;
29280;SDS011;25048;49.590;11.026;2022-12-07T03:35:27;17.93;;;9.70;;
29280;SDS011;25048;49.590;11.026;2022-12-07T03:40:52;19.17;;;10.20;;
29280;SDS011;25048;49.590;11.026;2022-12-07T03:43:27;22.20;;;10.83;;
29280;SDS011;25048;49.590;11.026;2022-12-07T03:46:42;20.50;;;10.37;;
29280;SDS011;25048;49.590;11.026;2022-12-07T03:48:45;16.77;;;9.57;;
29280;SDS011;25048;49.590;11.026;2022-12-07T03:51:20;17.80;;;9.90;;
29280;SDS011;25048;49.590;11.026;2022-12-07T03:53:59;17.43;;;9.33;;
29280;SDS011;25048;49.590;11.026;2022-12-07T03:56:29;18.43;;;9.93;;
29280;SDS011;25048;49.590;11.026;2022-12-07T03:58:58;20.07;;;10.37;;
29280;SDS011;25048;49.590;11.026;2022-12-07T04:01:25;19.93;;;10.03;;
29280;SDS011;25048;49.590;11.026;2022-12-07T04:03:53;21.80;;;10.73;;
29280;SDS011;25048;49.590;11.026;2022-12-07T04:06:21;18.93;;;10.73;;
29280;SDS011;25048;49.590;11.026;2022-12-07T04:08:48;16.57;;;9.50;;
29280;SDS011;25048;49.590;11.026;2022-12-07T04:11:16;18.37;;;10.13;;
29280;SDS011;25048;49.590;11.026;2022-12-07T04:13:43;19.43;;;10.53;;
29280;SDS011;25048;49.590;11.026;2022-12-07T04:16:29;19.03;;;9.83;;
29280;SDS011;25048;49.590;11.026;2022-12-07T04:18:56;18.80;;;10.27;;
29280;SDS011;25048;49.590;11.026;2022-12-07T04:21:24;23.03;;;12.23;;
29280;SDS011;25048;49.590;11.026;2022-12-07T04:23:51;24.27;;;11.33;;
29280;SDS011;25048;49.590;11.026;2022-12-07T04:26:19;18.77;;;10.77;;
29280;SDS011;25048;49.590;11.026;2022-12-07T04:28:46;22.23;;;11.47;;
29280;SDS011;25048;49.590;11.026;2022-12-07T04:31:14;19.97;;;11.47;;
29280;SDS011;25048;49.590;11.026;2022-12-07T04:33:41;20.93;;;10.73;;
29280;SDS011;25048;49.590;11.026;2022-12-07T04:36:09;22.27;;;11.47;;
29280;SDS011;25048;49.590;11.026;2022-12-07T04:38:36;20.63;;;11.30;;
29280;SDS011;25048;49.590;11.026;2022-12-07T04:41:07;26.67;;;12.23;;
29280;SDS011;25048;49.590;11.026;2022-12-07T04:43:35;21.03;;;11.63;;
29280;SDS011;25048;49.590;11.026;2022-12-07T04:46:03;19.90;;;10.93;;
29280;SDS011;25048;49.590;11.026;2022-12-07T04:48:31;27.57;;;12.90;;
29280;SDS011;25048;49.590;11.026;2022-12-07T04:50:58;23.87;;;12.37;;
29280;SDS011;25048;49.590;11.026;2022-12-07T04:53:25;20.63;;;10.80;;
29280;SDS011;25048;49.590;11.026;2022-12-07T04:55:53;21.30;;;11.80;;
29280;SDS011;25048;49.590;11.026;2022-12-07T04:58:20;20.27;;;11.27;;
29280;SDS011;25048;49.590;11.026;2022-12-07T05:00:48;20.60;;;11.57;;
29280;SDS011;25048;49.590;11.026;2022-12-07T05:03:16;26.67;;;11.97;;
29280;SDS011;25048;49.590;11.026;2022-12-07T05:05:43;20.67;;;10.30;;
29280;SDS011;25048;49.590;11.026;2022-12-07T05:08:11;23.40;;;10.87;;
29280;SDS011;25048;49.590;11.026;2022-12-07T05:10:38;20.57;;;10.73;;
29280;SDS011;25048;49.590;11.026;2022-12-07T05:13:06;24.80;;;10.73;;
29280;SDS011;25048;49.590;11.026;2022-12-07T05:15:33;22.20;;;11.63;;
29280;SDS011;25048;49.590;11.026;2022-12-07T05:18:00;22.97;;;10.90;;
29280;SDS011;25048;49.590;11.026;2022-12-07T05:20:29;20.57;;;11.43;;
29280;SDS011;25048;49.590;11.026;2022-12-07T05:22:56;23.20;;;11.30;;
29280;SDS011;25048;49.590;11.026;2022-12-07T05:25:24;21.60;;;11.83;;
29280;SDS011;25048;49.590;11.026;2022-12-07T05:27:51;21.80;;;11.33;;
29280;SDS011;25048;49.590;11.026;2022-12-07T05:30:21;24.40;;;12.43;;
29280;SDS011;25048;49.590;11.026;2022-12-07T05:32:49;25.70;;;11.20;;
29280;SDS011;25048;49.590;11.026;2022-12-07T05:35:17;23.33;;;12.13;;
29280;SDS011;25048;49.590;11.026;2022-12-07T05:37:45;24.63;;;12.67;;
29280;SDS011;25048;49.590;11.026;2022-12-07T05:42:41;24.40;;;12.23;;
29280;SDS011;25048;49.590;11.026;2022-12-07T05:45:09;21.90;;;11.93;;
29280;SDS011;25048;49.590;11.026;2022-12-07T05:47:37;25.20;;;12.80;;
29280;SDS011;25048;49.590;11.026;2022-12-07T05:50:05;24.00;;;12.87;;
29280;SDS011;25048;49.590;11.026;2022-12-07T05:52:33;27.43;;;10.83;;
29280;SDS011;25048;49.590;11.026;2022-12-07T05:55:01;23.07;;;12.27;;
29280;SDS011;25048;49.590;11.026;2022-12-07T05:57:28;24.10;;;13.07;;
29280;SDS011;25048;49.590;11.026;2022-12-07T05:59:56;23.37;;;11.60;;
29280;SDS011;25048;49.590;11.026;2022-12-07T06:02:23;23.33;;;11.70;;
29280;SDS011;25048;49.590;11.026;2022-12-07T06:04:51;26.67;;;13.27;;
29280;SDS011;25048;49.590;11.026;2022-12-07T06:07:18;24.67;;;12.40;;
29280;SDS011;25048;49.590;11.026;2022-12-07T06:09:46;25.23;;;12.33;;
29280;SDS011;25048;49.590;11.026;2022-12-07T06:12:13;24.10;;;12.03;;
29280;SDS011;25048;49.590;11.026;2022-12-07T06:14:59;23.93;;;12.10;;
29280;SDS011;25048;49.590;11.026;2022-12-07T06:17:27;21.47;;;11.27;;
29280;SDS011;25048;49.590;11.026;2022-12-07T06:19:54;24.07;;;11.33;;
29280;SDS011;25048;49.590;11.026;2022-12-07T06:22:22;20.70;;;10.80;;
29280;SDS011;25048;49.590;11.026;2022-12-07T06:24:49;23.17;;;11.67;;
29280;SDS011;25048;49.590;11.026;2022-12-07T06:27:17;24.03;;;11.70;;
29280;SDS011;25048;49.590;11.026;2022-12-07T06:29:44;23.53;;;11.27;;
29280;SDS011;25048;49.590;11.026;2022-12-07T06:32:12;21.23;;;11.67;;
29280;SDS011;25048;49.590;11.026;2022-12-07T06:34:39;21.30;;;12.03;;
29280;SDS011;25048;49.590;11.026;2022-12-07T06:37:07;23.03;;;11.93;;
29280;SDS011;25048;49.590;11.026;2022-12-07T06:39:34;23.67;;;11.40;;
29280;SDS011;25048;49.590;11.026;2022-12-07T06:42:02;22.70;;;11.47;;
29280;SDS011;25048;49.590;11.026;2022-12-07T06:44:29;22.17;;;11.17;;
29280;SDS011;25048;49.590;11.026;2022-12-07T06:46:58;25.20;;;11.87;;
29280;SDS011;25048;49.590;11.026;2022-12-07T06:49:25;22.00;;;10.77;;
29280;SDS011;25048;49.590;11.026;2022-12-07T06:51:53;20.40;;;11.17;;
29280;SDS011;25048;49.590;11.026;2022-12-07T06:54:20;22.77;;;11.60;;
29280;SDS011;25048;49.590;11.026;2022-12-07T06:56:48;19.90;;;10.80;;
29280;SDS011;25048;49.590;11.026;2022-12-07T06:59:15;24.97;;;12.07;;
29280;SDS011;25048;49.590;11.026;2022-12-07T07:01:43;22.43;;;11.17;;
29280;SDS011;25048;49.590;11.026;2022-12-07T07:04:10;21.33;;;11.20;;
29280;SDS011;25048;49.590;11.026;2022-12-07T07:06:38;25.50;;;11.77;;
29280;SDS011;25048;49.590;11.026;2022-12-07T07:09:05;21.87;;;11.80;;
29280;SDS011;25048;49.590;11.026;2022-12-07T07:11:35;19.67;;;10.30;;
29280;SDS011;25048;49.590;11.026;2022-12-07T07:14:02;20.47;;;10.67;;
29280;SDS011;25048;49.590;11.026;2022-12-07T07:16:30;18.93;;;9.73;;
29280;SDS011;25048;49.590;11.026;2022-12-07T07:18:57;19.17;;;9.90;;
29280;SDS011;25048;49.590;11.026;2022-12-07T07:21:25;20.20;;;9.93;;
29280;SDS011;25048;49.590;11.026;2022-12-07T07:23:52;20.80;;;11.57;;
29280;SDS011;25048;49.590;11.026;2022-12-07T07:26:20;22.37;;;10.70;;
29280;SDS011;25048;49.590;11.026;2022-12-07T07:28:47;20.63;;;10.60;;
29280;SDS011;25048;49.590;11.026;2022-12-07T07:31:15;19.10;;;10.20;;
29280;SDS011;25048;49.590;11.026;2022-12-07T07:33:42;18.90;;;10.23;;
29280;SDS011;25048;49.590;11.026;2022-12-07T07:36:11;18.87;;;9.83;;
29280;SDS011;25048;49.590;11.026;2022-12-07T07:38:38;20.57;;;10.00;;
29280;SDS011;25048;49.590;11.026;2022-12-07T07:41:06;18.27;;;9.70;;
29280;SDS011;25048;49.590;11.026;2022-12-07T07:43:33;19.77;;;11.07;;
29280;SDS011;25048;49.590;11.026;2022-12-07T07:46:01;26.90;;;11.20;;
29280;SDS011;25048;49.590;11.026;2022-12-07T07:48:28;22.97;;;11.10;;
29280;SDS011;25048;49.590;11.026;2022-12-07T07:50:56;22.13;;;10.43;;
29280;SDS011;25048;49.590;11.026;2022-12-07T07:53:23;23.27;;;10.90;;
29280;SDS011;25048;49.590;11.026;2022-12-07T07:55:51;25.47;;;12.70;;
29280;SDS011;25048;49.590;11.026;2022-12-07T07:58:20;24.73;;;11.63;;
29280;SDS011;25048;49.590;11.026;2022-12-07T08:00:47;25.13;;;12.20;;
29280;SDS011;25048;49.590;11.026;2022-12-07T08:03:15;23.00;;;11.50;;
29280;SDS011;25048;49.590;11.026;2022-12-07T08:05:43;23.23;;;11.47;;
29280;SDS011;25048;49.590;11.026;2022-12-07T08:08:10;26.20;;;11.50;;
29280;SDS011;25048;49.590;11.026;2022-12-07T08:10:38;25.87;;;11.60;;
29280;SDS011;25048;49.590;11.026;2022-12-07T08:13:06;26.20;;;12.47;;
29280;SDS011;25048;49.590;11.026;2022-12-07T08:15:43;23.00;;;11.93;;
29280;SDS011;25048;49.590;11.026;2022-12-07T08:18:12;24.67;;;12.17;;
29280;SDS011;25048;49.590;11.026;2022-12-07T08:20:40;26.83;;;12.30;;
29280;SDS011;25048;49.590;11.026;2022-12-07T08:23:09;21.90;;;11.67;;
29280;SDS011;25048;49.590;11.026;2022-12-07T08:25:37;21.93;;;11.37;;
29280;SDS011;25048;49.590;11.026;2022-12-07T08:28:05;22.73;;;11.40;;
29280;SDS011;25048;49.590;11.026;2022-12-07T08:30:33;22.67;;;10.73;;
29280;SDS011;25048;49.590;11.026;2022-12-07T08:33:00;20.27;;;10.40;;
29280;SDS011;25048;49.590;11.026;2022-12-07T08:35:28;24.67;;;12.07;;
29280;SDS011;25048;49.590;11.026;2022-12-07T08:37:55;17.80;;;9.40;;
29280;SDS011;25048;49.590;11.026;2022-12-07T08:40:25;22.50;;;10.57;;
29280;SDS011;25048;49.590;11.026;2022-12-07T08:42:53;21.47;;;10.77;;
29280;SDS011;25048;49.590;11.026;2022-12-07T08:45:21;23.20;;;11.13;;
29280;SDS011;25048;49.590;11.026;2022-12-07T08:47:55;17.93;;;10.07;;
29280;SDS011;25048;49.590;11.026;2022-12-07T08:50:19;19.30;;;10.60;;
29280;SDS011;25048;49.590;11.026;2022-12-07T08:52:52;18.37;;;9.40;;
29280;SDS011;25048;49.590;11.026;2022-12-07T08:55:21;17.40;;;9.97;;
29280;SDS011;25048;49.590;11.026;2022-12-07T08:57:49;17.20;;;9.13;;
29280;SDS011;25048;49.590;11.026;2022-12-07T09:00:17;20.07;;;9.73;;
29280;SDS011;25048;49.590;11.026;2022-12-07T09:02:45;17.33;;;8.73;;
29280;SDS011;25048;49.590;11.026;2022-12-07T09:05:12;19.63;;;8.97;;
29280;SDS011;25048;49.590;11.026;2022-12-07T09:07:43;18.17;;;9.03;;
29280;SDS011;25048;49.590;11.026;2022-12-07T09:10:13;21.13;;;10.03;;
29280;SDS011;25048;49.590;11.026;2022-12-07T09:12:40;15.67;;;9.13;;
29280;SDS011;25048;49.590;11.026;2022-12-07T09:15:08;17.27;;;7.50;;
29280;SDS011;25048;49.590;11.026;2022-12-07T09:17:35;17.00;;;8.70;;
29280;SDS011;25048;49.590;11.026;2022-12-07T09:20:08;16.17;;;7.93;;
29280;SDS011;25048;49.590;11.026;2022-12-07T09:22:33;16.00;;;7.80;;
29280;SDS011;25048;49.590;11.026;2022-12-07T09:25:00;14.47;;;7.73;;
29280;SDS011;25048;49.590;11.026;2022-12-07T09:27:29;19.57;;;9.50;;
29280;SDS011;25048;49.590;11.026;2022-12-07T09:29:56;16.77;;;7.90;;
29280;SDS011;25048;49.590;11.026;2022-12-07T09:32:24;16.27;;;8.20;;
29280;SDS011;25048;49.590;11.026;2022-12-07T09:34:51;16.53;;;8.20;;
29280;SDS011;25048;49.590;11.026;2022-12-07T09:37:19;20.73;;;9.13;;
29280;SDS011;25048;49.590;11.026;2022-12-07T09:39:46;14.40;;;7.57;;
29280;SDS011;25048;49.590;11.026;2022-12-07T09:42:23;18.10;;;9.17;;
29280;SDS011;25048;49.590;11.026;2022-12-07T09:44:54;18.10;;;8.80;;
29280;SDS011;25048;49.590;11.026;2022-12-07T09:47:22;17.33;;;8.90;;
29280;SDS011;25048;49.590;11.026;2022-12-07T09:49:49;14.90;;;8.57;;
29280;SDS011;25048;49.590;11.026;2022-12-07T09:52:18;19.63;;;8.73;;
29280;SDS011;25048;49.590;11.026;2022-12-07T09:54:50;17.47;;;8.70;;
29280;SDS011;25048;49.590;11.026;2022-12-07T09:57:25;19.00;;;9.83;;
29280;SDS011;25048;49.590;11.026;2022-12-07T09:59:56;15.03;;;8.83;;
29280;SDS011;25048;49.590;11.026;2022-12-07T10:02:33;18.33;;;9.30;;
29280;SDS011;25048;49.590;11.026;2022-12-07T10:05:06;15.10;;;8.47;;
29280;SDS011;25048;49.590;11.026;2022-12-07T10:07:35;18.33;;;9.30;;
29280;SDS011;25048;49.590;11.026;2022-12-07T10:10:04;18.17;;;9.67;;
29280;SDS011;25048;49.590;11.026;2022-12-07T10:12:50;16.63;;;9.20;;
29280;SDS011;25048;49.590;11.026;2022-12-07T10:15:21;18.37;;;9.73;;
29280;SDS011;25048;49.590;11.026;2022-12-07T10:17:49;18.00;;;9.43;;
29280;SDS011;25048;49.590;11.026;2022-12-07T10:22:55;15.80;;;9.00;;
29280;SDS011;25048;49.590;11.026;2022-12-07T10:25:32;17.50;;;8.83;;
29280;SDS011;25048;49.590;11.026;2022-12-07T10:28:08;16.60;;;8.80;;
29280;SDS011;25048;49.590;11.026;2022-12-07T10:30:49;21.53;;;10.90;;
29280;SDS011;25048;49.590;11.026;2022-12-07T10:33:35;17.10;;;9.23;;
29280;SDS011;25048;49.590;11.026;2022-12-07T10:36:18;17.53;;;9.33;;
29280;SDS011;25048;49.590;11.026;2022-12-07T10:38:48;17.67;;;10.17;;
29280;SDS011;25048;49.590;11.026;2022-12-07T10:41:18;18.37;;;10.50;;
29280;SDS011;25048;49.590;11.026;2022-12-07T10:43:50;17.77;;;9.97;;
29280;SDS011;25048;49.590;11.026;2022-12-07T10:46:30;17.17;;;9.33;;
29280;SDS011;25048;49.590;11.026;2022-12-07T10:52:02;17.77;;;9.97;;
29280;SDS011;25048;49.590;11.026;2022-12-07T10:57:15;18.57;;;9.37;;
29280;SDS011;25048;49.590;11.026;2022-12-07T11:02:33;18.20;;;9.43;;
29280;SDS011;25048;49.590;11.026;2022-12-07T11:05:19;17.23;;;9.10;;
29280;SDS011;25048;49.590;11.026;2022-12-07T11:07:58;21.27;;;10.73;;
29280;SDS011;25048;49.590;11.026;2022-12-07T11:10:41;20.13;;;10.67;;
29280;SDS011;25048;49.590;11.026;2022-12-07T11:21:38;18.43;;;9.73;;
29280;SDS011;25048;49.590;11.026;2022-12-07T11:24:15;15.47;;;9.17;;
29280;SDS011;25048;49.590;11.026;2022-12-07T11:26:51;17.70;;;9.17;;
29280;SDS011;25048;49.590;11.026;2022-12-07T11:32:17;21.23;;;10.20;;
29280;SDS011;25048;49.590;11.026;2022-12-07T11:34:58;19.50;;;10.77;;
29280;SDS011;25048;49.590;11.026;2022-12-07T11:37:34;14.47;;;9.10;;
29280;SDS011;25048;49.590;11.026;2022-12-07T11:42:49;17.70;;;9.53;;
29280;SDS011;25048;49.590;11.026;2022-12-07T11:45:24;17.17;;;9.07;;
29280;SDS011;25048;49.590;11.026;2022-12-07T11:48:00;15.30;;;8.40;;
29280;SDS011;25048;49.590;11.026;2022-12-07T11:50:37;15.97;;;9.10;;
29280;SDS011;25048;49.590;11.026;2022-12-07T11:53:26;15.00;;;9.10;;
29280;SDS011;25048;49.590;11.026;2022-12-07T12:07:17;17.17;;;9.03;;
29280;SDS011;25048;49.590;11.026;2022-12-07T12:09:53;14.47;;;8.67;;
29280;SDS011;25048;49.590;11.026;2022-12-07T12:17:58;14.53;;;8.70;;
29280;SDS011;25048;49.590;11.026;2022-12-07T12:20:40;16.37;;;8.03;;
29280;SDS011;25048;49.590;11.026;2022-12-07T12:23:15;15.83;;;8.87;;
29280;SDS011;25048;49.590;11.026;2022-12-07T12:26:33;15.13;;;9.23;;
29280;SDS011;25048;49.590;11.026;2022-12-07T12:28:34;16.80;;;9.07;;
29280;SDS011;25048;49.590;11.026;2022-12-07T12:31:12;14.77;;;9.10;;
29280;SDS011;25048;49.590;11.026;2022-12-07T12:33:45;14.50;;;8.87;;
29280;SDS011;25048;49.590;11.026;2022-12-07T12:36:19;15.87;;;9.00;;
29280;SDS011;25048;49.590;11.026;2022-12-07T12:46:49;17.20;;;8.87;;
29280;SDS011;25048;49.590;11.026;2022-12-07T12:51:55;16.17;;;8.40;;
29280;SDS011;25048;49.590;11.026;2022-12-07T12:57:30;18.80;;;9.67;;
29280;SDS011;25048;49.590;11.026;2022-12-07T12:59:59;21.80;;;9.23;;
29280;SDS011;25048;49.590;11.026;2022-12-07T13:02:33;16.90;;;9.07;;
29280;SDS011;25048;49.590;11.026;2022-12-07T13:20:54;14.43;;;8.17;;
29280;SDS011;25048;49.590;11.026;2022-12-07T13:23:38;14.20;;;8.03;;
29280;SDS011;25048;49.590;11.026;2022-12-07T13:26:18;14.93;;;8.63;;
29280;SDS011;25048;49.590;11.026;2022-12-07T13:29:09;12.83;;;7.77;;
29280;SDS011;25048;49.590;11.026;2022-12-07T13:31:39;13.70;;;7.60;;
29280;SDS011;25048;49.590;11.026;2022-12-07T13:34:33;14.00;;;8.33;;
29280;SDS011;25048;49.590;11.026;2022-12-07T13:36:57;18.40;;;8.77;;
29280;SDS011;25048;49.590;11.026;2022-12-07T13:39:32;14.47;;;8.13;;
29280;SDS011;25048;49.590;11.026;2022-12-07T13:42:06;16.03;;;8.53;;
29280;SDS011;25048;49.590;11.026;2022-12-07T13:44:33;15.67;;;7.90;;
29280;SDS011;25048;49.590;11.026;2022-12-07T13:47:09;13.43;;;7.07;;
29280;SDS011;25048;49.590;11.026;2022-12-07T13:49:47;14.23;;;8.50;;
29280;SDS011;25048;49.590;11.026;2022-12-07T13:54:57;15.23;;;8.27;;
29280;SDS011;25048;49.590;11.026;2022-12-07T13:57:27;13.93;;;7.27;;
29280;SDS011;25048;49.590;11.026;2022-12-07T13:59:57;18.40;;;7.70;;
29280;SDS011;25048;49.590;11.026;2022-12-07T14:02:26;13.70;;;7.20;;
29280;SDS011;25048;49.590;11.026;2022-12-07T14:05:15;12.93;;;7.20;;
29280;SDS011;25048;49.590;11.026;2022-12-07T14:08:00;13.60;;;7.67;;
29280;SDS011;25048;49.590;11.026;2022-12-07T14:10:53;14.03;;;8.10;;
29280;SDS011;25048;49.590;11.026;2022-12-07T14:13:34;13.17;;;7.50;;
29280;SDS011;25048;49.590;11.026;2022-12-07T14:16:22;11.23;;;7.23;;
29280;SDS011;25048;49.590;11.026;2022-12-07T14:18:53;13.57;;;6.47;;
29280;SDS011;25048;49.590;11.026;2022-12-07T14:21:24;16.17;;;7.37;;
29280;SDS011;25048;49.590;11.026;2022-12-07T14:24:14;15.93;;;7.87;;
29280;SDS011;25048;49.590;11.026;2022-12-07T14:26:45;13.07;;;7.93;;
29280;SDS011;25048;49.590;11.026;2022-12-07T14:34:42;14.93;;;8.10;;
29280;SDS011;25048;49.590;11.026;2022-12-07T14:37:21;12.43;;;7.30;;
29280;SDS011;25048;49.590;11.026;2022-12-07T14:39:48;15.07;;;8.07;;
29280;SDS011;25048;49.590;11.026;2022-12-07T14:42:16;19.17;;;7.67;;
29280;SDS011;25048;49.590;11.026;2022-12-07T14:44:43;14.07;;;7.80;;
29280;SDS011;25048;49.590;11.026;2022-12-07T14:47:11;11.83;;;7.00;;
29280;SDS011;25048;49.590;11.026;2022-12-07T14:49:39;10.80;;;6.70;;
29280;SDS011;25048;49.590;11.026;2022-12-07T14:52:08;11.13;;;6.60;;
29280;SDS011;25048;49.590;11.026;2022-12-07T14:54:43;12.53;;;7.43;;
29280;SDS011;25048;49.590;11.026;2022-12-07T14:57:10;12.60;;;6.60;;
29280;SDS011;25048;49.590;11.026;2022-12-07T14:59:38;10.80;;;6.27;;
29280;SDS011;25048;49.590;11.026;2022-12-07T15:02:06;15.20;;;7.20;;
29280;SDS011;25048;49.590;11.026;2022-12-07T15:04:35;14.77;;;5.80;;
29280;SDS011;25048;49.590;11.026;2022-12-07T15:07:03;11.60;;;5.23;;
29280;SDS011;25048;49.590;11.026;2022-12-07T15:09:33;8.13;;;4.77;;
29280;SDS011;25048;49.590;11.026;2022-12-07T15:12:00;9.67;;;5.47;;
29280;SDS011;25048;49.590;11.026;2022-12-07T15:14:29;8.97;;;5.33;;
29280;SDS011;25048;49.590;11.026;2022-12-07T15:16:56;10.00;;;5.73;;
29280;SDS011;25048;49.590;11.026;2022-12-07T15:19:25;9.93;;;5.33;;
29280;SDS011;25048;49.590;11.026;2022-12-07T15:21:53;9.03;;;5.03;;
29280;SDS011;25048;49.590;11.026;2022-12-07T15:24:21;9.03;;;5.17;;
29280;SDS011;25048;49.590;11.026;2022-12-07T15:26:49;9.80;;;6.03;;
29280;SDS011;25048;49.590;11.026;2022-12-07T15:29:18;10.00;;;5.73;;
29280;SDS011;25048;49.590;11.026;2022-12-07T15:31:45;10.93;;;6.40;;
29280;SDS011;25048;49.590;11.026;2022-12-07T15:34:14;12.50;;;6.17;;
29280;SDS011;25048;49.590;11.026;2022-12-07T15:36:41;13.30;;;7.00;;
29280;SDS011;25048;49.590;11.026;2022-12-07T15:39:09;12.27;;;6.67;;
29280;SDS011;25048;49.590;11.026;2022-12-07T15:41:37;15.03;;;8.23;;
29280;SDS011;25048;49.590;11.026;2022-12-07T15:44:04;15.60;;;7.83;;
29280;SDS011;25048;49.590;11.026;2022-12-07T15:46:50;12.83;;;7.17;;
29280;SDS011;25048;49.590;11.026;2022-12-07T15:49:18;16.10;;;8.77;;
29280;SDS011;25048;49.590;11.026;2022-12-07T15:51:46;20.23;;;8.83;;
29280;SDS011;25048;49.590;11.026;2022-12-07T15:54:20;20.73;;;9.63;;
29280;SDS011;25048;49.590;11.026;2022-12-07T15:56:44;15.90;;;8.00;;
29280;SDS011;25048;49.590;11.026;2022-12-07T15:59:11;19.20;;;8.47;;
29280;SDS011;25048;49.590;11.026;2022-12-07T16:01:39;20.03;;;9.73;;
29280;SDS011;25048;49.590;11.026;2022-12-07T16:04:07;14.60;;;7.80;;
29280;SDS011;25048;49.590;11.026;2022-12-07T16:06:34;17.17;;;7.57;;
29280;SDS011;25048;49.590;11.026;2022-12-07T16:09:02;15.00;;;8.97;;
29280;SDS011;25048;49.590;11.026;2022-12-07T16:11:30;17.60;;;9.07;;
29280;SDS011;25048;49.590;11.026;2022-12-07T16:13:58;18.23;;;9.27;;
29280;SDS011;25048;49.590;11.026;2022-12-07T16:16:26;18.23;;;8.90;;
29280;SDS011;25048;49.590;11.026;2022-12-07T16:18:54;15.33;;;8.10;;
29280;SDS011;25048;49.590;11.026;2022-12-07T16:21:22;17.50;;;8.67;;
29280;SDS011;25048;49.590;11.026;2022-12-07T16:23:49;16.70;;;9.00;;
29280;SDS011;25048;49.590;11.026;2022-12-07T16:26:18;18.23;;;10.07;;
29280;SDS011;25048;49.590;11.026;2022-12-07T16:28:50;20.70;;;9.53;;
29280;SDS011;25048;49.590;11.026;2022-12-07T16:31:20;21.23;;;10.20;;
29280;SDS011;25048;49.590;11.026;2022-12-07T16:33:49;19.53;;;9.47;;